Terminal Aerodrome Forecast
Issued by NWS Topeka, KS

Home | Current Version | Previous Version | Graphics & Text | Print | Product List | Glossary On
Versions: 1 2 3 4 5 6 7 8 9 10 11 12 13 14 15 16
000
FTUS43 KTOP 252200 AAB
TAFTOP
TAF AMD
KTOP 252200Z 2522/2618 33021G25KT P6SM OVC025
     FM260000 33009KT P6SM BKN025
     FM260500 23006KT P6SM FEW020 SCT040=

USA.gov is the U.S. government's official web portal to all federal, state and local government web resources and services.